PUA1497 SCIP-SCEL
Flight info
| Callsign | PUA1497 |
|---|---|
| Flight time | 4h 10m |
| Altitude | 41000 |
| Route | ASALA UL348 DGO |
| Aircraft | C700/M-SBDGHM1RWXY/LB2 |
Departure
| Time | 2026-04-20 10:00 |
|---|---|
| Airport | Mataveri International Airport (SCIP) |
Arrival
| Time | 2026-04-20 14:10 |
|---|---|
| Airport | Comodoro Arturo Merino Benítez International Airport (SCEL) |
| Time | Latitude | Longitude | Altitude | Speed | Heading |
|---|---|---|---|---|---|
| 2026-04-20 09:43 | -27.15994 | -109.42877 | 152 ft | 0 kts | 298° |
| 2026-04-20 09:56 | -27.16002 | -109.42862 | 153 ft | 2 kts | 296° |
| 2026-04-20 09:56 | -27.16003 | -109.42855 | 153 ft | 0 kts | 270° |
| 2026-04-20 09:57 | -27.16003 | -109.42887 | 153 ft | 10 kts | 269° |
| 2026-04-20 09:57 | -27.16041 | -109.42985 | 151 ft | 16 kts | 238° |
| 2026-04-20 09:57 | -27.16068 | -109.43066 | 148 ft | 7 kts | 296° |
| 2026-04-20 09:58 | -27.16038 | -109.43161 | 142 ft | 19 kts | 292° |
| 2026-04-20 09:58 | -27.15973 | -109.43330 | 133 ft | 28 kts | 294° |
| 2026-04-20 09:58 | -27.15915 | -109.43457 | 127 ft | 16 kts | 298° |
| 2026-04-20 09:58 | -27.15873 | -109.43558 | 126 ft | 16 kts | 291° |
| 2026-04-20 09:59 | -27.15828 | -109.43652 | 125 ft | 8 kts | 320° |
| 2026-04-20 09:59 | -27.15820 | -109.43643 | 127 ft | 1 kts | 89° |
| 2026-04-20 09:59 | -27.15825 | -109.43631 | 126 ft | 10 kts | 109° |
| 2026-04-20 09:59 | -27.15964 | -109.43290 | 135 ft | 86 kts | 114° |
| 2026-04-20 10:00 | -27.16324 | -109.42454 | 200 ft | 149 kts | 116° |
| 2026-04-20 10:00 | -27.16840 | -109.41356 | 890 ft | 162 kts | 114° |
| 2026-04-20 10:00 | -27.17462 | -109.40216 | 1753 ft | 183 kts | 126° |
| 2026-04-20 10:00 | -27.18213 | -109.38943 | 2738 ft | 199 kts | 117° |
| 2026-04-20 10:01 | -27.18930 | -109.37574 | 3820 ft | 218 kts | 119° |
| 2026-04-20 10:01 | -27.19786 | -109.36006 | 4747 ft | 247 kts | 121° |
| 2026-04-20 10:01 | -27.20652 | -109.34280 | 5824 ft | 262 kts | 119° |
| 2026-04-20 10:01 | -27.21563 | -109.32481 | 7178 ft | 269 kts | 122° |
| 2026-04-20 10:02 | -27.22544 | -109.30653 | 8388 ft | 277 kts | 123° |
| 2026-04-20 10:02 | -27.23551 | -109.28758 | 9640 ft | 285 kts | 124° |
| 2026-04-20 10:02 | -27.24580 | -109.26799 | 10621 ft | 303 kts | 124° |
| 2026-04-20 10:02 | -27.25697 | -109.24679 | 11417 ft | 322 kts | 124° |
| 2026-04-20 10:03 | -27.26834 | -109.22494 | 12700 ft | 327 kts | 124° |
| 2026-04-20 10:03 | -27.28001 | -109.20256 | 13899 ft | 336 kts | 124° |
| 2026-04-20 10:03 | -27.29205 | -109.17965 | 15012 ft | 342 kts | 124° |
| 2026-04-20 10:03 | -27.30417 | -109.15648 | 16143 ft | 347 kts | 124° |
| 2026-04-20 10:04 | -27.31634 | -109.13318 | 17222 ft | 353 kts | 124° |
| 2026-04-20 10:04 | -27.32888 | -109.10920 | 18309 ft | 358 kts | 124° |
| 2026-04-20 10:04 | -27.34161 | -109.08479 | 19224 ft | 365 kts | 124° |
| 2026-04-20 10:04 | -27.35456 | -109.05997 | 20105 ft | 371 kts | 124° |
| 2026-04-20 10:05 | -27.36771 | -109.03477 | 20966 ft | 377 kts | 123° |
| 2026-04-20 10:05 | -27.38103 | -109.00908 | 21793 ft | 383 kts | 123° |
| 2026-04-20 10:05 | -27.39458 | -108.98300 | 22519 ft | 389 kts | 123° |
| 2026-04-20 10:05 | -27.40840 | -108.95652 | 23265 ft | 394 kts | 123° |
| 2026-04-20 10:06 | -27.42244 | -108.92971 | 23948 ft | 400 kts | 122° |
| 2026-04-20 10:06 | -27.43650 | -108.90248 | 24618 ft | 403 kts | 122° |
| 2026-04-20 10:06 | -27.45069 | -108.87507 | 25297 ft | 407 kts | 122° |
| 2026-04-20 10:06 | -27.46500 | -108.84748 | 25978 ft | 411 kts | 122° |
| 2026-04-20 10:07 | -27.47934 | -108.81985 | 26621 ft | 415 kts | 122° |
| 2026-04-20 10:07 | -27.49399 | -108.79168 | 27246 ft | 419 kts | 122° |
| 2026-04-20 10:07 | -27.50873 | -108.76313 | 27868 ft | 423 kts | 122° |
| 2026-04-20 10:07 | -27.52364 | -108.73432 | 28492 ft | 427 kts | 122° |
| 2026-04-20 10:08 | -27.53872 | -108.70528 | 29113 ft | 431 kts | 122° |
| 2026-04-20 10:08 | -27.55386 | -108.67597 | 29733 ft | 435 kts | 122° |
| 2026-04-20 10:08 | -27.56920 | -108.64627 | 30329 ft | 439 kts | 122° |
| 2026-04-20 10:08 | -27.58468 | -108.61641 | 30845 ft | 442 kts | 122° |
| 2026-04-20 10:09 | -27.60001 | -108.58675 | 31333 ft | 446 kts | 122° |
| 2026-04-20 10:09 | -27.61572 | -108.55622 | 31829 ft | 449 kts | 122° |
| 2026-04-20 10:09 | -27.63149 | -108.52557 | 32288 ft | 453 kts | 122° |
| 2026-04-20 10:09 | -27.64732 | -108.49481 | 32733 ft | 456 kts | 122° |
| 2026-04-20 10:10 | -27.66336 | -108.46364 | 33179 ft | 460 kts | 122° |
| 2026-04-20 10:10 | -27.67811 | -108.43155 | 33734 ft | 462 kts | 114° |
| 2026-04-20 10:10 | -27.68890 | -108.39738 | 34333 ft | 461 kts | 111° |
| 2026-04-20 10:10 | -27.69940 | -108.36370 | 34783 ft | 461 kts | 112° |
| 2026-04-20 10:11 | -27.71033 | -108.32957 | 35211 ft | 462 kts | 112° |
| 2026-04-20 10:11 | -27.72111 | -108.29524 | 35650 ft | 463 kts | 112° |
| 2026-04-20 10:11 | -27.73164 | -108.26094 | 36053 ft | 464 kts | 112° |
| 2026-04-20 10:11 | -27.74234 | -108.22652 | 36451 ft | 464 kts | 112° |
| 2026-04-20 10:12 | -27.75318 | -108.19207 | 36822 ft | 465 kts | 112° |
| 2026-04-20 10:12 | -27.76386 | -108.15807 | 37181 ft | 465 kts | 112° |
| 2026-04-20 10:12 | -27.77451 | -108.12356 | 37523 ft | 466 kts | 112° |
| 2026-04-20 10:12 | -27.78519 | -108.08901 | 37852 ft | 466 kts | 112° |
| 2026-04-20 10:13 | -27.79599 | -108.05436 | 38175 ft | 467 kts | 113° |
| 2026-04-20 10:13 | -27.80674 | -108.01984 | 38480 ft | 467 kts | 112° |
| 2026-04-20 10:13 | -27.81745 | -107.98517 | 38759 ft | 468 kts | 112° |
| 2026-04-20 10:13 | -27.82815 | -107.95044 | 38996 ft | 468 kts | 112° |
| 2026-04-20 10:14 | -27.83889 | -107.91577 | 39227 ft | 468 kts | 112° |
| 2026-04-20 10:14 | -27.84956 | -107.88098 | 39455 ft | 468 kts | 112° |
| 2026-04-20 10:14 | -27.86031 | -107.84614 | 39658 ft | 469 kts | 112° |
| 2026-04-20 10:14 | -27.87117 | -107.81144 | 39869 ft | 469 kts | 112° |
| 2026-04-20 10:15 | -27.88190 | -107.77661 | 40067 ft | 469 kts | 112° |
| 2026-04-20 10:15 | -27.88893 | -107.75350 | 40199 ft | 469 kts | 112° |
| 2026-04-20 10:15 | -27.89961 | -107.71870 | 40389 ft | 469 kts | 113° |
| 2026-04-20 10:15 | -27.91052 | -107.68384 | 40569 ft | 469 kts | 113° |
| 2026-04-20 10:16 | -27.92467 | -107.63756 | 40805 ft | 470 kts | 112° |
| 2026-04-20 10:16 | -27.93179 | -107.61398 | 40930 ft | 470 kts | 112° |
| 2026-04-20 10:16 | -27.94245 | -107.57907 | 41096 ft | 470 kts | 113° |
| 2026-04-20 10:16 | -27.95328 | -107.54409 | 41124 ft | 473 kts | 113° |
| 2026-04-20 10:17 | -27.97537 | -107.47154 | 41123 ft | 482 kts | 112° |
| 2026-04-20 10:17 | -27.99746 | -107.39923 | 41141 ft | 490 kts | 112° |
| 2026-04-20 10:18 | -28.01981 | -107.32564 | 41143 ft | 497 kts | 112° |
| 2026-04-20 10:18 | -28.04247 | -107.25143 | 41140 ft | 505 kts | 112° |
| 2026-04-20 10:19 | -28.06526 | -107.17577 | 41140 ft | 511 kts | 112° |
| 2026-04-20 10:19 | -28.08837 | -107.09902 | 41136 ft | 518 kts | 112° |
| 2026-04-20 10:20 | -28.11170 | -107.02172 | 41137 ft | 516 kts | 112° |
| 2026-04-20 10:20 | -28.13476 | -106.94491 | 41137 ft | 513 kts | 112° |
| 2026-04-20 10:21 | -28.15763 | -106.86842 | 41135 ft | 513 kts | 112° |
| 2026-04-20 10:21 | -28.18054 | -106.79198 | 41135 ft | 516 kts | 112° |
| 2026-04-20 10:22 | -28.20362 | -106.71462 | 41136 ft | 518 kts | 112° |
| 2026-04-20 10:22 | -28.22659 | -106.63734 | 41137 ft | 516 kts | 112° |
| 2026-04-20 10:23 | -28.24943 | -106.56037 | 41134 ft | 514 kts | 112° |
| 2026-04-20 10:23 | -28.27215 | -106.48367 | 41134 ft | 514 kts | 112° |
| 2026-04-20 10:24 | -28.29486 | -106.40702 | 41132 ft | 516 kts | 112° |
| 2026-04-20 10:24 | -28.31761 | -106.32973 | 41129 ft | 513 kts | 112° |
| 2026-04-20 10:25 | -28.34018 | -106.25316 | 41124 ft | 512 kts | 112° |
| 2026-04-20 10:25 | -28.36285 | -106.17604 | 41126 ft | 517 kts | 112° |
| 2026-04-20 10:26 | -28.38557 | -106.09849 | 41130 ft | 515 kts | 112° |
| 2026-04-20 10:26 | -28.40786 | -106.02196 | 41128 ft | 510 kts | 112° |
| 2026-04-20 10:27 | -28.43027 | -105.94534 | 41129 ft | 512 kts | 112° |
| 2026-04-20 10:27 | -28.45283 | -105.86810 | 41133 ft | 516 kts | 112° |
| 2026-04-20 10:28 | -28.47595 | -105.79078 | 41132 ft | 515 kts | 112° |
| 2026-04-20 10:28 | -28.49838 | -105.71376 | 41128 ft | 511 kts | 112° |
| 2026-04-20 10:29 | -28.52109 | -105.63716 | 41131 ft | 513 kts | 112° |
| 2026-04-20 10:29 | -28.54337 | -105.56029 | 41137 ft | 515 kts | 112° |
| 2026-04-20 10:30 | -28.56636 | -105.48292 | 41131 ft | 517 kts | 112° |
| 2026-04-20 10:30 | -28.58868 | -105.40520 | 41132 ft | 515 kts | 112° |
| 2026-04-20 10:31 | -28.61129 | -105.32812 | 41136 ft | 513 kts | 112° |
| 2026-04-20 10:31 | -28.63365 | -105.25088 | 41134 ft | 514 kts | 112° |
| 2026-04-20 10:32 | -28.65610 | -105.17340 | 41134 ft | 517 kts | 112° |
| 2026-04-20 10:32 | -28.67855 | -105.09579 | 41132 ft | 519 kts | 112° |
| 2026-04-20 10:33 | -28.70092 | -105.01796 | 41131 ft | 516 kts | 112° |
| 2026-04-20 10:33 | -28.72320 | -104.94039 | 41137 ft | 514 kts | 112° |
| 2026-04-20 10:34 | -28.74523 | -104.86362 | 41147 ft | 502 kts | 113° |
| 2026-04-20 10:35 | -28.77773 | -104.75030 | 41129 ft | 505 kts | 113° |
| 2026-04-20 10:35 | -28.79937 | -104.67420 | 41131 ft | 508 kts | 112° |
| 2026-04-20 10:36 | -28.82106 | -104.59775 | 41133 ft | 504 kts | 113° |
| 2026-04-20 10:36 | -28.84267 | -104.52186 | 41131 ft | 502 kts | 113° |
| 2026-04-20 10:37 | -28.86420 | -104.44601 | 41128 ft | 504 kts | 113° |
| 2026-04-20 10:37 | -28.88569 | -104.36955 | 41132 ft | 507 kts | 113° |
| 2026-04-20 10:38 | -28.90738 | -104.29290 | 41136 ft | 505 kts | 113° |
| 2026-04-20 10:38 | -28.92870 | -104.21676 | 41135 ft | 502 kts | 113° |
| 2026-04-20 10:39 | -28.95004 | -104.14096 | 41129 ft | 502 kts | 113° |
| 2026-04-20 10:39 | -28.97119 | -104.06525 | 41130 ft | 505 kts | 113° |
| 2026-04-20 10:40 | -28.99259 | -103.98860 | 41129 ft | 506 kts | 113° |
| 2026-04-20 10:40 | -29.01383 | -103.91215 | 41126 ft | 503 kts | 113° |
| 2026-04-20 10:41 | -29.03496 | -103.83609 | 41126 ft | 501 kts | 113° |
| 2026-04-20 10:41 | -29.05599 | -103.76006 | 41130 ft | 503 kts | 113° |
| 2026-04-20 10:42 | -29.07712 | -103.68371 | 41130 ft | 505 kts | 113° |
| 2026-04-20 10:42 | -29.09826 | -103.60699 | 41133 ft | 505 kts | 113° |
| 2026-04-20 10:43 | -29.11924 | -103.53044 | 41123 ft | 503 kts | 113° |
| 2026-04-20 10:43 | -29.14022 | -103.45427 | 41125 ft | 501 kts | 113° |
| 2026-04-20 10:44 | -29.16088 | -103.37858 | 41138 ft | 503 kts | 113° |
| 2026-04-20 10:44 | -29.18191 | -103.30156 | 41128 ft | 505 kts | 113° |
| 2026-04-20 10:45 | -29.20270 | -103.22513 | 41127 ft | 506 kts | 113° |
| 2026-04-20 10:45 | -29.22356 | -103.14829 | 41124 ft | 504 kts | 113° |
| 2026-04-20 10:46 | -29.24426 | -103.07179 | 41127 ft | 501 kts | 113° |
| 2026-04-20 10:46 | -29.26497 | -102.99539 | 41125 ft | 503 kts | 113° |
| 2026-04-20 10:47 | -29.28560 | -102.91851 | 41122 ft | 506 kts | 113° |
| 2026-04-20 10:47 | -29.30627 | -102.84187 | 41127 ft | 506 kts | 113° |
| 2026-04-20 10:48 | -29.32685 | -102.76488 | 41124 ft | 504 kts | 113° |
| 2026-04-20 10:48 | -29.34737 | -102.68834 | 41124 ft | 502 kts | 113° |
| 2026-04-20 10:49 | -29.36783 | -102.61152 | 41122 ft | 504 kts | 113° |
| 2026-04-20 10:49 | -29.38834 | -102.53444 | 41124 ft | 507 kts | 113° |
| 2026-04-20 10:50 | -29.40886 | -102.45714 | 41126 ft | 506 kts | 113° |
| 2026-04-20 10:50 | -29.42916 | -102.38055 | 41125 ft | 503 kts | 113° |
| 2026-04-20 10:51 | -29.44937 | -102.30393 | 41121 ft | 502 kts | 113° |
| 2026-04-20 10:51 | -29.46960 | -102.22713 | 41124 ft | 504 kts | 113° |
| 2026-04-20 10:52 | -29.48984 | -102.15002 | 41124 ft | 506 kts | 113° |
| 2026-04-20 10:52 | -29.51012 | -102.07270 | 41125 ft | 505 kts | 112° |
| 2026-04-20 10:53 | -29.53023 | -101.99571 | 41125 ft | 502 kts | 112° |
| 2026-04-20 10:53 | -29.55021 | -101.91906 | 41125 ft | 500 kts | 112° |
| 2026-04-20 10:54 | -29.57010 | -101.84255 | 41124 ft | 500 kts | 112° |
| 2026-04-20 10:54 | -29.58999 | -101.76588 | 41121 ft | 502 kts | 112° |
| 2026-04-20 10:55 | -29.60996 | -101.68865 | 41129 ft | 504 kts | 112° |
| 2026-04-20 10:55 | -29.62972 | -101.61203 | 41127 ft | 502 kts | 112° |
| 2026-04-20 10:56 | -29.64947 | -101.53532 | 41131 ft | 499 kts | 112° |
| 2026-04-20 10:56 | -29.66913 | -101.45884 | 41130 ft | 499 kts | 112° |
| 2026-04-20 10:57 | -29.68545 | -101.39506 | 41130 ft | 501 kts | 112° |
| 2026-04-20 10:57 | -29.70507 | -101.31790 | 41127 ft | 503 kts | 112° |
| 2026-04-20 10:58 | -29.72480 | -101.24056 | 41137 ft | 503 kts | 112° |
| 2026-04-20 10:58 | -29.74433 | -101.16364 | 41138 ft | 500 kts | 112° |
| 2026-04-20 10:59 | -29.76377 | -101.08699 | 41136 ft | 498 kts | 112° |
| 2026-04-20 10:59 | -29.78313 | -101.01018 | 41131 ft | 500 kts | 112° |
| 2026-04-20 11:00 | -29.80261 | -100.93304 | 41136 ft | 503 kts | 112° |
| 2026-04-20 11:00 | -29.82204 | -100.85575 | 41134 ft | 502 kts | 112° |
| 2026-04-20 11:01 | -29.84118 | -100.77913 | 41137 ft | 499 kts | 112° |
| 2026-04-20 11:01 | -29.86038 | -100.70245 | 41142 ft | 497 kts | 112° |
| 2026-04-20 11:02 | -29.87955 | -100.62564 | 41142 ft | 500 kts | 112° |
| 2026-04-20 11:02 | -29.89874 | -100.54839 | 41145 ft | 502 kts | 112° |
| 2026-04-20 11:03 | -29.91779 | -100.47101 | 41150 ft | 501 kts | 112° |
| 2026-04-20 11:03 | -29.93700 | -100.39403 | 41155 ft | 498 kts | 112° |
| 2026-04-20 11:04 | -29.95595 | -100.31733 | 41144 ft | 497 kts | 111° |
| 2026-04-20 11:04 | -29.97469 | -100.24085 | 41144 ft | 500 kts | 112° |
| 2026-04-20 11:05 | -29.99368 | -100.16354 | 41141 ft | 503 kts | 112° |
| 2026-04-20 11:05 | -30.01266 | -100.08578 | 41141 ft | 502 kts | 112° |
| 2026-04-20 11:06 | -30.03150 | -100.00844 | 41138 ft | 499 kts | 112° |
| 2026-04-20 11:06 | -30.05035 | -99.93138 | 41146 ft | 498 kts | 112° |
| 2026-04-20 11:07 | -30.06919 | -99.85414 | 41151 ft | 502 kts | 111° |
| 2026-04-20 11:07 | -30.08802 | -99.77640 | 41167 ft | 504 kts | 111° |
| 2026-04-20 11:08 | -30.10713 | -99.69842 | 41161 ft | 503 kts | 111° |
| 2026-04-20 11:08 | -30.12573 | -99.62119 | 41156 ft | 502 kts | 111° |
| 2026-04-20 11:09 | -30.14461 | -99.54359 | 41148 ft | 501 kts | 111° |
| 2026-04-20 11:09 | -30.16323 | -99.46608 | 41146 ft | 500 kts | 112° |
| 2026-04-20 11:10 | -30.18185 | -99.38851 | 41150 ft | 503 kts | 111° |
| 2026-04-20 11:10 | -30.20057 | -99.31022 | 41154 ft | 506 kts | 111° |
| 2026-04-20 11:11 | -30.21933 | -99.23179 | 41148 ft | 505 kts | 111° |
| 2026-04-20 11:11 | -30.23785 | -99.15369 | 41153 ft | 502 kts | 111° |
| 2026-04-20 11:12 | -30.25637 | -99.07592 | 41152 ft | 502 kts | 111° |
| 2026-04-20 11:12 | -30.27483 | -98.99778 | 41153 ft | 505 kts | 111° |
| 2026-04-20 11:13 | -30.29338 | -98.91907 | 41154 ft | 507 kts | 111° |
| 2026-04-20 11:13 | -30.31176 | -98.84097 | 41153 ft | 505 kts | 111° |
| 2026-04-20 11:14 | -30.33014 | -98.76271 | 41156 ft | 503 kts | 111° |
| 2026-04-20 11:14 | -30.34838 | -98.68469 | 41164 ft | 503 kts | 111° |
| 2026-04-20 11:15 | -30.36674 | -98.60637 | 41152 ft | 506 kts | 111° |
| 2026-04-20 11:15 | -30.38506 | -98.52743 | 41157 ft | 508 kts | 111° |
| 2026-04-20 11:16 | -30.40335 | -98.44851 | 41169 ft | 506 kts | 111° |
| 2026-04-20 11:16 | -30.42146 | -98.36996 | 41160 ft | 503 kts | 110° |
| 2026-04-20 11:17 | -30.43963 | -98.29177 | 41163 ft | 503 kts | 111° |
| 2026-04-20 11:17 | -30.45766 | -98.21308 | 41163 ft | 507 kts | 110° |
| 2026-04-20 11:18 | -30.47584 | -98.13382 | 41163 ft | 509 kts | 111° |
| 2026-04-20 11:18 | -30.49397 | -98.05464 | 41165 ft | 507 kts | 110° |
| 2026-04-20 11:19 | -30.51181 | -97.97576 | 41162 ft | 505 kts | 110° |
| 2026-04-20 11:19 | -30.52964 | -97.89745 | 41164 ft | 505 kts | 110° |
| 2026-04-20 11:20 | -30.54753 | -97.81836 | 41167 ft | 507 kts | 110° |
| 2026-04-20 11:20 | -30.56551 | -97.73889 | 41166 ft | 510 kts | 110° |
| 2026-04-20 11:21 | -30.58341 | -97.65927 | 41168 ft | 509 kts | 110° |
| 2026-04-20 11:21 | -30.60123 | -97.57999 | 41173 ft | 507 kts | 110° |
| 2026-04-20 11:22 | -30.61889 | -97.50086 | 41175 ft | 505 kts | 110° |
| 2026-04-20 11:22 | -30.63657 | -97.42174 | 41173 ft | 507 kts | 110° |
| 2026-04-20 11:23 | -30.65415 | -97.34259 | 41173 ft | 510 kts | 110° |
| 2026-04-20 11:23 | -30.67187 | -97.26266 | 41172 ft | 511 kts | 109° |
| 2026-04-20 11:24 | -30.68955 | -97.18273 | 41178 ft | 509 kts | 109° |
| 2026-04-20 11:24 | -30.70700 | -97.10323 | 41177 ft | 507 kts | 109° |
| 2026-04-20 11:25 | -30.72448 | -97.02391 | 41180 ft | 508 kts | 109° |
| 2026-04-20 11:25 | -30.74191 | -96.94405 | 41179 ft | 511 kts | 109° |
| 2026-04-20 11:26 | -30.75944 | -96.86381 | 41179 ft | 513 kts | 109° |
| 2026-04-20 11:26 | -30.77674 | -96.78400 | 41178 ft | 511 kts | 109° |
| 2026-04-20 11:27 | -30.79413 | -96.70387 | 41177 ft | 509 kts | 109° |
| 2026-04-20 11:27 | -30.81132 | -96.62401 | 41178 ft | 509 kts | 109° |
| 2026-04-20 11:28 | -30.82867 | -96.54393 | 41179 ft | 512 kts | 109° |
| 2026-04-20 11:28 | -30.84576 | -96.46386 | 41184 ft | 514 kts | 108° |
| 2026-04-20 11:29 | -30.86313 | -96.38311 | 41184 ft | 513 kts | 108° |
| 2026-04-20 11:29 | -30.88019 | -96.30266 | 41183 ft | 510 kts | 108° |
| 2026-04-20 11:30 | -30.89730 | -96.22266 | 41184 ft | 509 kts | 108° |
| 2026-04-20 11:30 | -30.91424 | -96.14244 | 41190 ft | 512 kts | 108° |
| 2026-04-20 11:31 | -30.93134 | -96.06161 | 41195 ft | 515 kts | 108° |
| 2026-04-20 11:31 | -30.94830 | -95.98075 | 41190 ft | 513 kts | 108° |
| 2026-04-20 11:32 | -30.96523 | -95.90020 | 41193 ft | 510 kts | 108° |
| 2026-04-20 11:32 | -30.98198 | -95.81996 | 41195 ft | 511 kts | 107° |
| 2026-04-20 11:33 | -30.99871 | -95.73988 | 41193 ft | 513 kts | 108° |
| 2026-04-20 11:33 | -31.01551 | -95.65884 | 41197 ft | 514 kts | 107° |
| 2026-04-20 11:34 | -31.03235 | -95.57776 | 41198 ft | 512 kts | 107° |
| 2026-04-20 11:34 | -31.04886 | -95.49719 | 41198 ft | 510 kts | 107° |
| 2026-04-20 11:35 | -31.06547 | -95.41676 | 41198 ft | 511 kts | 107° |
| 2026-04-20 11:35 | -31.08201 | -95.33597 | 41195 ft | 513 kts | 107° |
| 2026-04-20 11:36 | -31.09853 | -95.25520 | 41197 ft | 515 kts | 107° |
| 2026-04-20 11:36 | -31.11503 | -95.17406 | 41195 ft | 512 kts | 107° |
| 2026-04-20 11:37 | -31.13138 | -95.09347 | 41198 ft | 510 kts | 107° |
| 2026-04-20 11:37 | -31.15583 | -94.97252 | 41197 ft | 512 kts | 106° |
| 2026-04-20 11:38 | -31.17170 | -94.89131 | 41197 ft | 514 kts | 106° |
| 2026-04-20 11:38 | -31.18778 | -94.80981 | 41200 ft | 514 kts | 106° |
| 2026-04-20 11:39 | -31.20367 | -94.72849 | 41201 ft | 513 kts | 106° |
| 2026-04-20 11:39 | -31.21938 | -94.64780 | 41202 ft | 511 kts | 105° |
| 2026-04-20 11:40 | -31.23517 | -94.56694 | 41201 ft | 510 kts | 105° |
| 2026-04-20 11:40 | -31.25082 | -94.48592 | 41204 ft | 512 kts | 105° |
| 2026-04-20 11:41 | -31.26660 | -94.40456 | 41204 ft | 514 kts | 105° |
| 2026-04-20 11:41 | -31.28230 | -94.32284 | 41206 ft | 515 kts | 105° |
| 2026-04-20 11:42 | -31.29795 | -94.24126 | 41208 ft | 513 kts | 105° |
| 2026-04-20 11:42 | -31.31348 | -94.16001 | 41207 ft | 511 kts | 105° |
| 2026-04-20 11:43 | -31.32895 | -94.07889 | 41208 ft | 511 kts | 105° |
| 2026-04-20 11:43 | -31.34431 | -93.99809 | 41213 ft | 514 kts | 105° |
| 2026-04-20 11:44 | -31.35975 | -93.91629 | 41214 ft | 516 kts | 105° |
| 2026-04-20 11:44 | -31.37516 | -93.83444 | 41217 ft | 513 kts | 105° |
| 2026-04-20 11:45 | -31.38785 | -93.76665 | 41214 ft | 511 kts | 105° |
| 2026-04-20 11:45 | -31.40308 | -93.68544 | 41212 ft | 511 kts | 105° |
| 2026-04-20 11:46 | -31.41824 | -93.60385 | 41217 ft | 513 kts | 105° |
| 2026-04-20 11:46 | -31.43348 | -93.52192 | 41218 ft | 516 kts | 104° |
| 2026-04-20 11:47 | -31.44854 | -93.44043 | 41220 ft | 514 kts | 104° |
| 2026-04-20 11:47 | -31.46361 | -93.35880 | 41219 ft | 511 kts | 104° |
| 2026-04-20 11:48 | -31.47854 | -93.27730 | 41223 ft | 511 kts | 104° |
| 2026-04-20 11:48 | -31.49350 | -93.19561 | 41221 ft | 514 kts | 104° |
| 2026-04-20 11:49 | -31.50842 | -93.11359 | 41217 ft | 516 kts | 104° |
| 2026-04-20 11:49 | -31.52335 | -93.03139 | 41220 ft | 514 kts | 104° |
| 2026-04-20 11:50 | -31.53812 | -92.94949 | 41219 ft | 512 kts | 104° |
| 2026-04-20 11:50 | -31.55275 | -92.86795 | 41216 ft | 511 kts | 104° |
| 2026-04-20 11:51 | -31.56744 | -92.78680 | 41216 ft | 514 kts | 104° |
| 2026-04-20 11:51 | -31.58207 | -92.70441 | 41219 ft | 516 kts | 104° |
| 2026-04-20 11:52 | -31.59674 | -92.62211 | 41226 ft | 514 kts | 104° |
| 2026-04-20 11:52 | -31.61127 | -92.54011 | 41219 ft | 511 kts | 103° |
| 2026-04-20 11:53 | -31.62566 | -92.45839 | 41224 ft | 512 kts | 103° |
| 2026-04-20 11:53 | -31.64011 | -92.37632 | 41226 ft | 515 kts | 103° |
| 2026-04-20 11:54 | -31.65463 | -92.29451 | 41224 ft | 517 kts | 104° |
| 2026-04-20 11:54 | -31.66882 | -92.21187 | 41221 ft | 515 kts | 103° |
| 2026-04-20 11:55 | -31.68328 | -92.12975 | 41228 ft | 512 kts | 104° |
| 2026-04-20 11:55 | -31.69732 | -92.04783 | 41225 ft | 512 kts | 103° |
| 2026-04-20 11:56 | -31.71156 | -91.96576 | 41221 ft | 515 kts | 103° |
| 2026-04-20 11:56 | -31.72574 | -91.88315 | 41229 ft | 517 kts | 103° |
| 2026-04-20 11:57 | -31.73991 | -91.80036 | 41222 ft | 515 kts | 103° |
| 2026-04-20 11:57 | -31.75397 | -91.71792 | 41231 ft | 512 kts | 103° |
| 2026-04-20 11:58 | -31.76785 | -91.63592 | 41226 ft | 512 kts | 103° |
| 2026-04-20 11:58 | -31.78184 | -91.55357 | 41223 ft | 515 kts | 103° |
| 2026-04-20 11:59 | -31.79570 | -91.47078 | 41224 ft | 517 kts | 103° |
| 2026-04-20 11:59 | -31.80963 | -91.38789 | 41226 ft | 516 kts | 103° |
| 2026-04-20 12:00 | -31.82338 | -91.30532 | 41230 ft | 513 kts | 103° |
| 2026-04-20 12:00 | -31.83699 | -91.22362 | 41227 ft | 513 kts | 103° |
| 2026-04-20 12:01 | -31.85073 | -91.14044 | 41222 ft | 516 kts | 103° |
| 2026-04-20 12:01 | -31.86438 | -91.05791 | 41230 ft | 518 kts | 103° |
| 2026-04-20 12:02 | -31.87798 | -90.97484 | 41226 ft | 516 kts | 103° |
| 2026-04-20 12:02 | -31.89156 | -90.89212 | 41223 ft | 514 kts | 103° |
| 2026-04-20 12:03 | -31.90493 | -90.80951 | 41219 ft | 513 kts | 103° |
| 2026-04-20 12:03 | -31.91841 | -90.72689 | 41226 ft | 515 kts | 103° |
| 2026-04-20 12:04 | -31.93172 | -90.64383 | 41224 ft | 517 kts | 103° |
| 2026-04-20 12:04 | -31.94514 | -90.56059 | 41223 ft | 518 kts | 102° |
| 2026-04-20 12:05 | -31.95835 | -90.47746 | 41226 ft | 515 kts | 102° |
| 2026-04-20 12:05 | -31.97160 | -90.39470 | 41227 ft | 513 kts | 102° |
| 2026-04-20 12:06 | -31.98457 | -90.31198 | 41229 ft | 515 kts | 102° |
| 2026-04-20 12:06 | -31.99772 | -90.22892 | 41231 ft | 517 kts | 102° |
| 2026-04-20 12:07 | -32.01093 | -90.14610 | 41234 ft | 518 kts | 103° |
| 2026-04-20 12:07 | -32.02385 | -90.06266 | 41237 ft | 516 kts | 102° |
| 2026-04-20 12:08 | -32.03678 | -89.97972 | 41229 ft | 514 kts | 102° |
| 2026-04-20 12:08 | -32.04977 | -89.89693 | 41232 ft | 514 kts | 102° |
| 2026-04-20 12:09 | -32.06270 | -89.81389 | 41229 ft | 517 kts | 102° |
| 2026-04-20 12:09 | -32.07574 | -89.73037 | 41239 ft | 518 kts | 102° |
| 2026-04-20 12:10 | -32.08864 | -89.64698 | 41228 ft | 516 kts | 102° |
| 2026-04-20 12:10 | -32.10153 | -89.56389 | 41235 ft | 513 kts | 102° |
| 2026-04-20 12:11 | -32.11424 | -89.48084 | 41226 ft | 515 kts | 101° |
| 2026-04-20 12:11 | -32.12701 | -89.39754 | 41231 ft | 517 kts | 102° |
| 2026-04-20 12:12 | -32.13958 | -89.31382 | 41232 ft | 518 kts | 101° |
| 2026-04-20 12:12 | -32.15235 | -89.23095 | 41236 ft | 516 kts | 102° |
| 2026-04-20 12:13 | -32.16474 | -89.14780 | 41239 ft | 513 kts | 102° |
| 2026-04-20 12:13 | -32.17718 | -89.06464 | 41236 ft | 516 kts | 101° |
| 2026-04-20 12:14 | -32.18982 | -88.98090 | 41232 ft | 519 kts | 101° |
| 2026-04-20 12:14 | -32.20217 | -88.89699 | 41242 ft | 517 kts | 101° |
| 2026-04-20 12:15 | -32.21456 | -88.81368 | 41240 ft | 514 kts | 102° |
| 2026-04-20 12:15 | -32.22679 | -88.73064 | 41241 ft | 514 kts | 100° |
| 2026-04-20 12:16 | -32.23913 | -88.64722 | 41239 ft | 517 kts | 102° |
| 2026-04-20 12:16 | -32.25129 | -88.56372 | 41235 ft | 518 kts | 101° |
| 2026-04-20 12:17 | -32.26335 | -88.48004 | 41248 ft | 515 kts | 102° |
| 2026-04-20 12:17 | -32.27555 | -88.39667 | 41247 ft | 513 kts | 101° |
| 2026-04-20 12:18 | -32.28738 | -88.31319 | 41246 ft | 516 kts | 101° |
| 2026-04-20 12:18 | -32.29950 | -88.22925 | 41247 ft | 519 kts | 101° |
| 2026-04-20 12:19 | -32.31144 | -88.14519 | 41248 ft | 516 kts | 101° |
| 2026-04-20 12:19 | -32.32328 | -88.06167 | 41236 ft | 514 kts | 101° |
| 2026-04-20 12:20 | -32.33489 | -87.97884 | 41247 ft | 515 kts | 101° |
| 2026-04-20 12:20 | -32.34676 | -87.89510 | 41244 ft | 518 kts | 101° |
| 2026-04-20 12:21 | -32.35848 | -87.81093 | 41250 ft | 519 kts | 101° |
| 2026-04-20 12:21 | -32.37011 | -87.72692 | 41243 ft | 516 kts | 101° |
| 2026-04-20 12:22 | -32.38169 | -87.64329 | 41253 ft | 514 kts | 101° |
| 2026-04-20 12:22 | -32.39315 | -87.55973 | 41253 ft | 515 kts | 101° |
| 2026-04-20 12:23 | -32.40464 | -87.47587 | 41248 ft | 517 kts | 101° |
| 2026-04-20 12:23 | -32.41604 | -87.39160 | 41255 ft | 519 kts | 101° |
| 2026-04-20 12:24 | -32.42753 | -87.30739 | 41241 ft | 517 kts | 101° |
| 2026-04-20 12:24 | -32.43869 | -87.22396 | 41250 ft | 515 kts | 101° |
| 2026-04-20 12:25 | -32.44991 | -87.14036 | 41252 ft | 514 kts | 101° |
| 2026-04-20 12:25 | -32.46107 | -87.05641 | 41248 ft | 517 kts | 100° |
| 2026-04-20 12:26 | -32.47231 | -86.97220 | 41250 ft | 519 kts | 101° |
| 2026-04-20 12:26 | -32.48340 | -86.88775 | 41254 ft | 518 kts | 100° |
| 2026-04-20 12:27 | -32.49448 | -86.80349 | 41260 ft | 516 kts | 101° |
| 2026-04-20 12:27 | -32.50539 | -86.71963 | 41263 ft | 514 kts | 100° |
| 2026-04-20 12:28 | -32.51631 | -86.63575 | 41258 ft | 516 kts | 100° |
| 2026-04-20 12:28 | -32.52709 | -86.55199 | 41262 ft | 519 kts | 100° |
| 2026-04-20 12:29 | -32.53801 | -86.46738 | 41258 ft | 519 kts | 100° |
| 2026-04-20 12:29 | -32.54876 | -86.38293 | 41259 ft | 516 kts | 100° |
| 2026-04-20 12:30 | -32.55944 | -86.29905 | 41262 ft | 514 kts | 100° |
| 2026-04-20 12:30 | -32.57007 | -86.21501 | 41258 ft | 517 kts | 100° |
| 2026-04-20 12:31 | -32.58062 | -86.13059 | 41258 ft | 519 kts | 100° |
| 2026-04-20 12:31 | -32.59124 | -86.04584 | 41256 ft | 518 kts | 100° |
| 2026-04-20 12:32 | -32.60171 | -85.96151 | 41257 ft | 516 kts | 100° |
| 2026-04-20 12:32 | -32.61205 | -85.87746 | 41255 ft | 514 kts | 100° |
| 2026-04-20 12:33 | -32.62070 | -85.80756 | 41257 ft | 516 kts | 100° |
| 2026-04-20 12:33 | -32.63100 | -85.72294 | 41245 ft | 519 kts | 100° |
| 2026-04-20 12:34 | -32.64302 | -85.62437 | 41258 ft | 518 kts | 100° |
| 2026-04-20 12:34 | -32.65149 | -85.55416 | 41257 ft | 515 kts | 100° |
| 2026-04-20 12:35 | -32.66161 | -85.46994 | 41250 ft | 514 kts | 100° |
| 2026-04-20 12:35 | -32.67172 | -85.38560 | 41254 ft | 517 kts | 100° |
| 2026-04-20 12:36 | -32.68176 | -85.30083 | 41263 ft | 519 kts | 100° |
| 2026-04-20 12:36 | -32.69181 | -85.21614 | 41261 ft | 517 kts | 100° |
| 2026-04-20 12:37 | -32.70160 | -85.13223 | 41260 ft | 515 kts | 100° |
| 2026-04-20 12:37 | -32.71147 | -85.04803 | 41259 ft | 515 kts | 100° |
| 2026-04-20 12:38 | -32.72124 | -84.96344 | 41252 ft | 518 kts | 100° |
| 2026-04-20 12:38 | -32.73126 | -84.87847 | 41264 ft | 520 kts | 100° |
| 2026-04-20 12:39 | -32.74588 | -84.75135 | 41250 ft | 515 kts | 100° |
| 2026-04-20 12:40 | -32.75561 | -84.66716 | 41260 ft | 514 kts | 99° |
| 2026-04-20 12:40 | -32.76517 | -84.58268 | 41259 ft | 518 kts | 99° |
| 2026-04-20 12:41 | -32.77488 | -84.49768 | 41264 ft | 519 kts | 99° |
| 2026-04-20 12:41 | -32.78434 | -84.41327 | 41268 ft | 516 kts | 99° |
| 2026-04-20 12:42 | -32.79378 | -84.32899 | 41265 ft | 514 kts | 99° |
| 2026-04-20 12:42 | -32.80319 | -84.24461 | 41257 ft | 516 kts | 99° |
| 2026-04-20 12:43 | -32.81259 | -84.15968 | 41266 ft | 519 kts | 99° |
| 2026-04-20 12:43 | -32.82192 | -84.07457 | 41268 ft | 518 kts | 99° |
| 2026-04-20 12:44 | -32.83123 | -83.98990 | 41257 ft | 515 kts | 99° |
| 2026-04-20 12:44 | -32.84035 | -83.90542 | 41267 ft | 515 kts | 99° |
| 2026-04-20 12:45 | -32.84940 | -83.82127 | 41429 ft | 512 kts | 99° |
| 2026-04-20 12:45 | -32.85369 | -83.78044 | 42768 ft | 483 kts | 99° |
| 2026-04-20 12:45 | -32.85788 | -83.74130 | 43420 ft | 475 kts | 99° |
| 2026-04-20 12:46 | -32.86630 | -83.66290 | 43650 ft | 477 kts | 99° |
| 2026-04-20 12:46 | -32.87042 | -83.62365 | 43807 ft | 478 kts | 99° |
| 2026-04-20 12:46 | -32.87456 | -83.58446 | 43955 ft | 478 kts | 99° |
| 2026-04-20 12:46 | -32.87871 | -83.54525 | 44097 ft | 478 kts | 99° |
| 2026-04-20 12:47 | -32.88284 | -83.50590 | 44230 ft | 478 kts | 99° |
| 2026-04-20 12:47 | -32.88691 | -83.46716 | 44358 ft | 478 kts | 99° |
| 2026-04-20 12:47 | -32.89095 | -83.42785 | 44492 ft | 479 kts | 99° |
| 2026-04-20 12:47 | -32.89506 | -83.38846 | 44622 ft | 479 kts | 99° |
| 2026-04-20 12:48 | -32.89915 | -83.34911 | 44739 ft | 479 kts | 99° |
| 2026-04-20 12:48 | -32.90321 | -83.30974 | 44854 ft | 479 kts | 99° |
| 2026-04-20 12:48 | -32.90727 | -83.27036 | 44964 ft | 480 kts | 99° |
| 2026-04-20 12:49 | -32.91536 | -83.19154 | 45161 ft | 480 kts | 99° |
| 2026-04-20 12:49 | -32.92346 | -83.11233 | 45276 ft | 483 kts | 99° |
| 2026-04-20 12:50 | -32.93144 | -83.03316 | 45274 ft | 488 kts | 99° |
| 2026-04-20 12:50 | -32.93972 | -82.95257 | 45267 ft | 492 kts | 99° |
| 2026-04-20 12:51 | -32.94769 | -82.87133 | 45275 ft | 496 kts | 99° |
| 2026-04-20 12:51 | -32.95593 | -82.78936 | 45277 ft | 500 kts | 99° |
| 2026-04-20 12:52 | -32.96406 | -82.70657 | 45274 ft | 504 kts | 99° |
| 2026-04-20 12:52 | -32.97223 | -82.62374 | 45275 ft | 508 kts | 99° |
| 2026-04-20 12:53 | -32.98036 | -82.53981 | 45274 ft | 512 kts | 99° |
| 2026-04-20 12:53 | -32.98854 | -82.45532 | 45277 ft | 515 kts | 99° |
| 2026-04-20 12:54 | -32.99671 | -82.37029 | 45277 ft | 518 kts | 99° |
| 2026-04-20 12:54 | -33.00485 | -82.28479 | 45279 ft | 521 kts | 99° |
| 2026-04-20 12:55 | -33.01300 | -82.19871 | 45283 ft | 524 kts | 99° |
| 2026-04-20 12:55 | -33.02115 | -82.11221 | 45281 ft | 526 kts | 99° |
| 2026-04-20 12:56 | -33.02922 | -82.02528 | 45278 ft | 529 kts | 99° |
| 2026-04-20 12:56 | -33.03732 | -81.93800 | 45275 ft | 531 kts | 99° |
| 2026-04-20 12:57 | -33.04534 | -81.85042 | 45273 ft | 530 kts | 99° |
| 2026-04-20 12:57 | -33.05325 | -81.76330 | 45281 ft | 528 kts | 99° |
| 2026-04-20 12:58 | -33.06108 | -81.67647 | 45276 ft | 526 kts | 99° |
| 2026-04-20 12:58 | -33.06883 | -81.59022 | 45276 ft | 528 kts | 99° |
| 2026-04-20 12:59 | -33.07660 | -81.50298 | 45275 ft | 530 kts | 98° |
| 2026-04-20 12:59 | -33.08423 | -81.41549 | 45281 ft | 532 kts | 99° |
| 2026-04-20 13:00 | -33.09205 | -81.32759 | 45280 ft | 532 kts | 98° |
| 2026-04-20 13:00 | -33.09951 | -81.23991 | 45288 ft | 530 kts | 99° |
| 2026-04-20 13:01 | -33.10712 | -81.15305 | 45280 ft | 529 kts | 98° |
| 2026-04-20 13:01 | -33.11443 | -81.06589 | 45281 ft | 527 kts | 98° |
| 2026-04-20 13:02 | -33.12188 | -80.97874 | 45279 ft | 529 kts | 98° |
| 2026-04-20 13:02 | -33.12920 | -80.89116 | 45284 ft | 531 kts | 98° |
| 2026-04-20 13:03 | -33.13651 | -80.80338 | 45286 ft | 532 kts | 98° |
| 2026-04-20 13:03 | -33.14377 | -80.71525 | 45280 ft | 533 kts | 98° |
| 2026-04-20 13:04 | -33.15094 | -80.62795 | 45276 ft | 531 kts | 98° |
| 2026-04-20 13:04 | -33.15799 | -80.54040 | 45278 ft | 528 kts | 98° |
| 2026-04-20 13:05 | -33.16502 | -80.45330 | 45277 ft | 528 kts | 98° |
| 2026-04-20 13:05 | -33.17194 | -80.36582 | 45274 ft | 530 kts | 98° |
| 2026-04-20 13:06 | -33.17890 | -80.27799 | 45281 ft | 531 kts | 98° |
| 2026-04-20 13:06 | -33.18578 | -80.19009 | 45282 ft | 533 kts | 98° |
| 2026-04-20 13:07 | -33.19258 | -80.10184 | 45284 ft | 533 kts | 98° |
| 2026-04-20 13:07 | -33.19937 | -80.01383 | 45281 ft | 532 kts | 98° |
| 2026-04-20 13:08 | -33.20888 | -79.92644 | 45283 ft | 529 kts | 101° |
| 2026-04-20 13:08 | -33.21852 | -79.83943 | 45297 ft | 528 kts | 101° |
| 2026-04-20 13:09 | -33.22837 | -79.75286 | 45288 ft | 530 kts | 101° |
| 2026-04-20 13:09 | -33.23810 | -79.66481 | 45286 ft | 532 kts | 101° |
| 2026-04-20 13:10 | -33.24789 | -79.57724 | 45283 ft | 533 kts | 100° |
| 2026-04-20 13:10 | -33.25743 | -79.48972 | 45284 ft | 535 kts | 100° |
| 2026-04-20 13:11 | -33.26712 | -79.40175 | 45281 ft | 533 kts | 100° |
| 2026-04-20 13:11 | -33.27661 | -79.31420 | 45281 ft | 530 kts | 100° |
| 2026-04-20 13:12 | -33.28600 | -79.22693 | 45282 ft | 530 kts | 100° |
| 2026-04-20 13:12 | -33.29541 | -79.13950 | 45282 ft | 531 kts | 100° |
| 2026-04-20 13:13 | -33.30475 | -79.05169 | 45282 ft | 533 kts | 100° |
| 2026-04-20 13:13 | -33.31407 | -78.96356 | 45285 ft | 535 kts | 100° |
| 2026-04-20 13:14 | -33.32335 | -78.87516 | 45282 ft | 535 kts | 100° |
| 2026-04-20 13:14 | -33.33250 | -78.78708 | 45284 ft | 533 kts | 100° |
| 2026-04-20 13:15 | -33.34158 | -78.69997 | 45285 ft | 530 kts | 100° |
| 2026-04-20 13:15 | -33.35061 | -78.61219 | 45280 ft | 532 kts | 100° |
| 2026-04-20 13:16 | -33.35957 | -78.52421 | 45277 ft | 533 kts | 100° |
| 2026-04-20 13:16 | -33.36855 | -78.43596 | 45277 ft | 535 kts | 100° |
| 2026-04-20 13:17 | -33.37741 | -78.34768 | 45284 ft | 537 kts | 100° |
| 2026-04-20 13:17 | -33.38628 | -78.25927 | 45279 ft | 536 kts | 99° |
| 2026-04-20 13:18 | -33.39500 | -78.17085 | 45283 ft | 534 kts | 99° |
| 2026-04-20 13:18 | -33.40371 | -78.08264 | 45286 ft | 532 kts | 99° |
| 2026-04-20 13:19 | -33.41228 | -77.99457 | 45283 ft | 532 kts | 99° |
| 2026-04-20 13:19 | -33.42090 | -77.90637 | 45282 ft | 534 kts | 99° |
| 2026-04-20 13:20 | -33.42939 | -77.81789 | 45276 ft | 536 kts | 99° |
| 2026-04-20 13:20 | -33.43787 | -77.72901 | 45278 ft | 538 kts | 99° |
| 2026-04-20 13:21 | -33.44492 | -77.65508 | 45277 ft | 537 kts | 99° |
| 2026-04-20 13:21 | -33.45456 | -77.55181 | 45278 ft | 536 kts | 99° |
| 2026-04-20 13:22 | -33.46294 | -77.46315 | 45271 ft | 534 kts | 99° |
| 2026-04-20 13:22 | -33.47082 | -77.37711 | 45278 ft | 534 kts | 99° |
| 2026-04-20 13:23 | -33.47765 | -77.30351 | 45279 ft | 536 kts | 99° |
| 2026-04-20 13:23 | -33.48580 | -77.21455 | 45276 ft | 538 kts | 99° |
| 2026-04-20 13:24 | -33.49387 | -77.12527 | 45276 ft | 540 kts | 99° |
| 2026-04-20 13:24 | -33.50188 | -77.03593 | 45275 ft | 538 kts | 99° |
| 2026-04-20 13:25 | -33.50984 | -76.94682 | 45273 ft | 537 kts | 99° |
| 2026-04-20 13:25 | -33.51768 | -76.85804 | 45270 ft | 535 kts | 98° |
| 2026-04-20 13:26 | -33.52541 | -76.76929 | 45272 ft | 536 kts | 98° |
| 2026-04-20 13:26 | -33.53326 | -76.68013 | 45276 ft | 538 kts | 98° |
| 2026-04-20 13:27 | -33.54086 | -76.59076 | 45276 ft | 540 kts | 98° |
| 2026-04-20 13:27 | -33.54859 | -76.50100 | 45266 ft | 542 kts | 98° |
| 2026-04-20 13:28 | -33.55610 | -76.41184 | 45260 ft | 540 kts | 98° |
| 2026-04-20 13:28 | -33.56367 | -76.32246 | 45265 ft | 538 kts | 98° |
| 2026-04-20 13:29 | -33.57107 | -76.23330 | 45260 ft | 537 kts | 98° |
| 2026-04-20 13:29 | -33.57849 | -76.14405 | 45258 ft | 539 kts | 98° |
| 2026-04-20 13:30 | -33.58577 | -76.05436 | 45258 ft | 541 kts | 98° |
| 2026-04-20 13:30 | -33.59311 | -75.96428 | 45253 ft | 543 kts | 98° |
| 2026-04-20 13:31 | -33.60033 | -75.87463 | 45262 ft | 542 kts | 98° |
| 2026-04-20 13:31 | -33.60742 | -75.78481 | 45264 ft | 540 kts | 98° |
| 2026-04-20 13:32 | -33.61451 | -75.69526 | 45267 ft | 538 kts | 98° |
| 2026-04-20 13:32 | -33.62147 | -75.60587 | 45258 ft | 539 kts | 97° |
| 2026-04-20 13:33 | -33.62841 | -75.51611 | 45257 ft | 541 kts | 97° |
| 2026-04-20 13:33 | -33.63533 | -75.42589 | 45263 ft | 544 kts | 97° |
| 2026-04-20 13:34 | -33.64221 | -75.33546 | 45258 ft | 543 kts | 97° |
| 2026-04-20 13:34 | -33.64896 | -75.24590 | 45259 ft | 541 kts | 97° |
| 2026-04-20 13:35 | -33.65559 | -75.15607 | 45257 ft | 539 kts | 97° |
| 2026-04-20 13:35 | -33.66224 | -75.06637 | 45250 ft | 540 kts | 97° |
| 2026-04-20 13:36 | -33.66046 | -74.97633 | 45183 ft | 541 kts | 80° |
| 2026-04-20 13:36 | -33.64063 | -74.88960 | 45245 ft | 537 kts | 71° |
| 2026-04-20 13:37 | -33.61797 | -74.80464 | 45270 ft | 538 kts | 73° |
| 2026-04-20 13:37 | -33.59760 | -74.71831 | 45237 ft | 538 kts | 72° |
| 2026-04-20 13:38 | -33.57533 | -74.63271 | 45254 ft | 537 kts | 72° |
| 2026-04-20 13:38 | -33.55433 | -74.54669 | 45241 ft | 537 kts | 72° |
| 2026-04-20 13:39 | -33.53240 | -74.46124 | 45242 ft | 536 kts | 72° |
| 2026-04-20 13:39 | -33.51103 | -74.37557 | 45242 ft | 536 kts | 72° |
| 2026-04-20 13:40 | -33.48923 | -74.29024 | 45245 ft | 535 kts | 72° |
| 2026-04-20 13:40 | -33.46759 | -74.20480 | 45239 ft | 537 kts | 72° |
| 2026-04-20 13:41 | -33.44579 | -74.11950 | 45243 ft | 540 kts | 72° |
| 2026-04-20 13:41 | -33.42377 | -74.03338 | 45242 ft | 542 kts | 72° |
| 2026-04-20 13:42 | -33.40162 | -73.94722 | 45239 ft | 541 kts | 71° |
| 2026-04-20 13:42 | -33.36857 | -73.81848 | 45232 ft | 538 kts | 72° |
| 2026-04-20 13:43 | -33.34634 | -73.73314 | 45235 ft | 538 kts | 71° |
| 2026-04-20 13:43 | -33.32419 | -73.64747 | 45229 ft | 541 kts | 71° |
| 2026-04-20 13:44 | -33.30173 | -73.56144 | 45222 ft | 543 kts | 71° |
| 2026-04-20 13:44 | -33.27921 | -73.47517 | 45230 ft | 544 kts | 71° |
| 2026-04-20 13:45 | -33.25670 | -73.38913 | 45225 ft | 541 kts | 71° |
| 2026-04-20 13:45 | -33.23431 | -73.30412 | 45232 ft | 538 kts | 71° |
| 2026-04-20 13:46 | -33.21183 | -73.21877 | 45228 ft | 539 kts | 71° |
| 2026-04-20 13:46 | -33.18909 | -73.13307 | 45224 ft | 542 kts | 71° |
| 2026-04-20 13:47 | -33.16633 | -73.04703 | 45228 ft | 544 kts | 71° |
| 2026-04-20 13:47 | -33.14341 | -72.96116 | 45228 ft | 541 kts | 71° |
| 2026-04-20 13:48 | -33.12059 | -72.87615 | 44478 ft | 542 kts | 70° |
| 2026-04-20 13:48 | -33.10911 | -72.83360 | 43778 ft | 536 kts | 70° |
| 2026-04-20 13:48 | -33.09776 | -72.79152 | 43077 ft | 529 kts | 70° |
| 2026-04-20 13:49 | -33.08652 | -72.74993 | 42388 ft | 523 kts | 70° |
| 2026-04-20 13:49 | -33.07536 | -72.70887 | 41717 ft | 518 kts | 69° |
| 2026-04-20 13:49 | -33.06427 | -72.66817 | 41038 ft | 514 kts | 69° |
| 2026-04-20 13:49 | -33.05327 | -72.62766 | 40367 ft | 513 kts | 69° |
| 2026-04-20 13:50 | -33.04223 | -72.58708 | 39694 ft | 516 kts | 69° |
| 2026-04-20 13:50 | -33.03107 | -72.54616 | 39009 ft | 522 kts | 69° |
| 2026-04-20 13:50 | -33.01979 | -72.50484 | 38253 ft | 527 kts | 69° |
| 2026-04-20 13:50 | -33.00844 | -72.46324 | 37556 ft | 529 kts | 69° |
| 2026-04-20 13:51 | -32.99721 | -72.42200 | 36868 ft | 530 kts | 69° |
| 2026-04-20 13:51 | -32.98578 | -72.38031 | 36171 ft | 530 kts | 68° |
| 2026-04-20 13:51 | -32.97432 | -72.33864 | 35474 ft | 528 kts | 68° |
| 2026-04-20 13:51 | -32.96289 | -72.29719 | 34779 ft | 527 kts | 68° |
| 2026-04-20 13:52 | -32.95132 | -72.25517 | 34044 ft | 526 kts | 68° |
| 2026-04-20 13:52 | -32.94017 | -72.21445 | 33337 ft | 522 kts | 68° |
| 2026-04-20 13:52 | -32.92885 | -72.17345 | 32652 ft | 521 kts | 68° |
| 2026-04-20 13:52 | -32.91749 | -72.13249 | 31965 ft | 522 kts | 68° |
| 2026-04-20 13:53 | -32.90608 | -72.09139 | 31277 ft | 523 kts | 68° |
| 2026-04-20 13:53 | -32.89465 | -72.05035 | 30585 ft | 523 kts | 68° |
| 2026-04-20 13:53 | -32.88327 | -72.00935 | 29852 ft | 520 kts | 68° |
| 2026-04-20 13:53 | -32.87201 | -71.96875 | 29165 ft | 511 kts | 68° |
| 2026-04-20 13:54 | -32.86093 | -71.92895 | 28493 ft | 503 kts | 68° |
| 2026-04-20 13:54 | -32.84990 | -71.88961 | 27832 ft | 496 kts | 68° |
| 2026-04-20 13:54 | -32.83916 | -71.85101 | 27197 ft | 490 kts | 68° |
| 2026-04-20 13:54 | -32.82848 | -71.81269 | 26564 ft | 485 kts | 68° |
| 2026-04-20 13:55 | -32.81783 | -71.77480 | 25933 ft | 481 kts | 68° |
| 2026-04-20 13:55 | -32.80730 | -71.73732 | 25310 ft | 476 kts | 68° |
| 2026-04-20 13:55 | -32.79687 | -71.70009 | 24688 ft | 470 kts | 69° |
| 2026-04-20 13:55 | -32.78656 | -71.66357 | 24083 ft | 463 kts | 69° |
| 2026-04-20 13:56 | -32.77641 | -71.62763 | 23441 ft | 456 kts | 69° |
| 2026-04-20 13:56 | -32.76647 | -71.59221 | 22843 ft | 448 kts | 69° |
| 2026-04-20 13:56 | -32.75691 | -71.55762 | 22276 ft | 446 kts | 71° |
| 2026-04-20 13:56 | -32.75085 | -71.52137 | 21709 ft | 449 kts | 82° |
| 2026-04-20 13:57 | -32.74980 | -71.48423 | 21114 ft | 451 kts | 92° |
| 2026-04-20 13:57 | -32.75385 | -71.44742 | 20520 ft | 448 kts | 102° |
| 2026-04-20 13:57 | -32.76244 | -71.41215 | 19918 ft | 443 kts | 109° |
| 2026-04-20 13:57 | -32.77192 | -71.37756 | 19318 ft | 437 kts | 109° |
| 2026-04-20 13:58 | -32.78131 | -71.34293 | 18736 ft | 430 kts | 109° |
| 2026-04-20 13:58 | -32.79037 | -71.31020 | 18132 ft | 414 kts | 109° |
| 2026-04-20 13:58 | -32.79918 | -71.27842 | 17596 ft | 396 kts | 109° |
| 2026-04-20 13:58 | -32.80752 | -71.24773 | 17077 ft | 382 kts | 108° |
| 2026-04-20 13:59 | -32.81549 | -71.21820 | 16578 ft | 370 kts | 108° |
| 2026-04-20 13:59 | -32.82334 | -71.18949 | 16099 ft | 360 kts | 109° |
| 2026-04-20 13:59 | -32.83102 | -71.16151 | 15640 ft | 351 kts | 108° |
| 2026-04-20 13:59 | -32.83841 | -71.13416 | 15185 ft | 344 kts | 107° |
| 2026-04-20 14:00 | -32.84563 | -71.10738 | 14736 ft | 337 kts | 107° |
| 2026-04-20 14:00 | -32.85279 | -71.08098 | 14300 ft | 332 kts | 107° |
| 2026-04-20 14:00 | -32.85972 | -71.05536 | 13858 ft | 327 kts | 107° |
| 2026-04-20 14:00 | -32.86672 | -71.02942 | 13402 ft | 323 kts | 107° |
| 2026-04-20 14:01 | -32.87357 | -71.00428 | 12990 ft | 316 kts | 107° |
| 2026-04-20 14:01 | -32.88021 | -70.97989 | 12557 ft | 312 kts | 106° |
| 2026-04-20 14:01 | -32.88690 | -70.95525 | 12021 ft | 311 kts | 106° |
| 2026-04-20 14:01 | -32.89349 | -70.93090 | 11600 ft | 307 kts | 106° |
| 2026-04-20 14:02 | -32.89997 | -70.90691 | 11208 ft | 302 kts | 105° |
| 2026-04-20 14:02 | -32.90744 | -70.88359 | 10842 ft | 302 kts | 116° |
| 2026-04-20 14:02 | -32.91950 | -70.86314 | 10452 ft | 303 kts | 131° |
| 2026-04-20 14:02 | -32.93526 | -70.84656 | 10041 ft | 301 kts | 147° |
| 2026-04-20 14:03 | -32.95364 | -70.83510 | 9627 ft | 297 kts | 161° |
| 2026-04-20 14:03 | -32.97344 | -70.82920 | 9230 ft | 292 kts | 176° |
| 2026-04-20 14:03 | -32.99356 | -70.82626 | 8811 ft | 290 kts | 176° |
| 2026-04-20 14:03 | -33.01346 | -70.82378 | 8441 ft | 285 kts | 181° |
| 2026-04-20 14:04 | -33.03291 | -70.82292 | 8058 ft | 281 kts | 181° |
| 2026-04-20 14:04 | -33.05236 | -70.82191 | 7688 ft | 278 kts | 181° |
| 2026-04-20 14:04 | -33.07157 | -70.82075 | 7330 ft | 275 kts | 181° |
| 2026-04-20 14:04 | -33.09061 | -70.81964 | 6975 ft | 272 kts | 181° |
| 2026-04-20 14:05 | -33.10940 | -70.81856 | 6618 ft | 269 kts | 180° |
| 2026-04-20 14:05 | -33.12788 | -70.81749 | 6252 ft | 261 kts | 180° |
| 2026-04-20 14:05 | -33.14561 | -70.81642 | 5918 ft | 250 kts | 180° |
| 2026-04-20 14:05 | -33.16276 | -70.81547 | 5587 ft | 243 kts | 180° |
| 2026-04-20 14:06 | -33.17938 | -70.81449 | 5273 ft | 235 kts | 179° |
| 2026-04-20 14:06 | -33.19541 | -70.81357 | 5038 ft | 227 kts | 180° |
| 2026-04-20 14:06 | -33.21104 | -70.81274 | 4737 ft | 223 kts | 179° |
| 2026-04-20 14:06 | -33.22643 | -70.81190 | 4430 ft | 220 kts | 179° |
| 2026-04-20 14:07 | -33.24156 | -70.81106 | 4154 ft | 215 kts | 179° |
| 2026-04-20 14:07 | -33.25591 | -70.81030 | 3874 ft | 198 kts | 180° |
| 2026-04-20 14:07 | -33.26926 | -70.80969 | 3619 ft | 188 kts | 181° |
| 2026-04-20 14:07 | -33.28190 | -70.80913 | 3393 ft | 173 kts | 182° |
| 2026-04-20 14:08 | -33.29356 | -70.80846 | 3162 ft | 166 kts | 175° |
| 2026-04-20 14:08 | -33.30116 | -70.80733 | 3016 ft | 167 kts | 174° |
| 2026-04-20 14:08 | -33.31263 | -70.80651 | 2798 ft | 164 kts | 181° |
| 2026-04-20 14:08 | -33.32322 | -70.80623 | 2580 ft | 145 kts | 180° |
| 2026-04-20 14:09 | -33.33571 | -70.80575 | 2362 ft | 140 kts | 179° |
| 2026-04-20 14:09 | -33.34548 | -70.80507 | 2141 ft | 139 kts | 177° |
| 2026-04-20 14:09 | -33.35450 | -70.80455 | 1961 ft | 138 kts | 176° |
| 2026-04-20 14:09 | -33.36097 | -70.80418 | 1801 ft | 132 kts | 177° |
| 2026-04-20 14:10 | -33.37011 | -70.80380 | 1622 ft | 133 kts | 176° |
| 2026-04-20 14:10 | -33.37840 | -70.80348 | 1554 ft | 105 kts | 176° |
| 2026-04-20 14:10 | -33.38372 | -70.80334 | 1554 ft | 41 kts | 189° |
| 2026-04-20 14:10 | -33.38547 | -70.80325 | 1554 ft | 27 kts | 166° |
| 2026-04-20 14:11 | -33.38758 | -70.80285 | 1555 ft | 35 kts | 175° |
| 2026-04-20 14:11 | -33.39031 | -70.80272 | 1555 ft | 44 kts | 179° |
| 2026-04-20 14:11 | -33.39318 | -70.80198 | 1553 ft | 45 kts | 159° |
| 2026-04-20 14:11 | -33.39540 | -70.80058 | 1553 ft | 25 kts | 147° |
| 2026-04-20 14:12 | -33.39643 | -70.79943 | 1554 ft | 21 kts | 128° |
| 2026-04-20 14:12 | -33.39677 | -70.79842 | 1554 ft | 16 kts | 84° |
| 2026-04-20 14:12 | -33.39670 | -70.79694 | 1554 ft | 6 kts | 91° |
| 2026-04-20 14:12 | -33.39670 | -70.79693 | 1554 ft | 0 kts | 91° |